»·PEaware :: N1128 KLAS-KSFO

N1128 :: KLAS-KSFO

FLIGHT INFORMATION

Flight Status: Arrived
Operator: Privately registered:
United States
More flights under this callsign
Pilot: Siddique N. (20419)
Aircraft: Unknown
(BT7)
More flights by this aircraft type
Origin: KLAS McCarran Intl
United States
Destination: KSFO San Francisco Intl
United States
More flights between these airports :: More routes between these airports
Route: +SUMMR2 STOKD SERFR SERFR4
File this flight plan on PilotEdge
Remarks:
Altitude:
(Current/Filed)
25,000ft
Speed:
(Current/Filed)
320kts
Departed: 12-Oct-20 09:30 AM
Arrived: 12-Oct-20 10:26 AM
Distance/Time
Traveled:
359nm/0:56
Distance/Time
To Go:
Arrived

Flight Plot

Page will automatically refresh every two minutes.

Flight plan parsing failed; only flown route is shown


Map Options




Map Legend


Flown Route
Filed Route
Departure Airport
Arrival Airport
Navaid (VOR, NDB)
Fix

Horizontal Profiles

Position Reports

Time Latitude Longitude Heading Altitude Ground
Speed
12-Oct-20 09:01 33.944067 -118.411092 83 110ft 0kts
12-Oct-20 09:02 33.944067 -118.411092 83 110ft 0kts
12-Oct-20 09:03 33.944066 -118.411079 100 110ft 0kts
12-Oct-20 09:04 33.944013 -118.411053 206 110ft 0kts
12-Oct-20 09:05 33.944013 -118.411053 206 110ft 0kts
12-Oct-20 09:06 33.944013 -118.411053 206 110ft 0kts
12-Oct-20 09:07 33.944013 -118.411053 206 110ft 0kts
12-Oct-20 09:08 33.944013 -118.411053 206 110ft 0kts
12-Oct-20 09:09 33.944013 -118.411053 206 110ft 0kts
12-Oct-20 09:10 33.944013 -118.411053 206 110ft 0kts
12-Oct-20 09:11 33.944013 -118.411053 206 110ft 0kts
12-Oct-20 09:12 33.944013 -118.411053 206 110ft 0kts
12-Oct-20 09:13 33.944013 -118.411053 206 110ft 0kts
12-Oct-20 09:14 33.944013 -118.411053 206 110ft 0kts
12-Oct-20 09:15 33.944013 -118.411053 206 110ft 0kts
12-Oct-20 09:16 33.944013 -118.411053 206 110ft 0kts
12-Oct-20 09:17 33.944013 -118.411053 206 110ft 0kts
12-Oct-20 09:18 33.944013 -118.411053 206 110ft 0kts
12-Oct-20 09:19 33.944013 -118.411053 206 110ft 0kts
12-Oct-20 09:20 33.944013 -118.411053 206 110ft 0kts
12-Oct-20 09:21 33.944013 -118.411053 206 110ft 0kts
12-Oct-20 09:22 33.944013 -118.411053 206 110ft 0kts
12-Oct-20 09:23 33.944013 -118.411053 206 110ft 0kts
12-Oct-20 09:24 33.944604 -118.412129 349 110ft 14kts
12-Oct-20 09:25 33.947372 -118.410416 83 110ft 26kts
12-Oct-20 09:26 33.948136 -118.403464 83 110ft 27kts
12-Oct-20 09:27 33.949266 -118.400786 13 110ft 0kts
12-Oct-20 09:28 33.950211 -118.401213 274 110ft 0kts
12-Oct-20 09:29 33.946797 -118.453129 268 541ft 158kts
12-Oct-20 09:30 33.942139 -118.515756 263 1870ft 201kts
12-Oct-20 09:31 33.937542 -118.583282 262 3237ft 209kts
12-Oct-20 09:32 33.933117 -118.656844 266 4200ft 235kts
12-Oct-20 09:33 33.925453 -118.732765 263 5777ft 215kts
12-Oct-20 09:34 33.923647 -118.806943 265 7241ft 229kts
12-Oct-20 09:35 33.922120 -118.893505 270 9571ft 248kts
12-Oct-20 09:36 33.925268 -118.977059 272 12150ft 303kts
12-Oct-20 09:37 33.953701 -119.060566 299 14641ft 225kts
12-Oct-20 09:38 33.992387 -119.131997 299 17257ft 285kts
12-Oct-20 09:39 34.044844 -119.200425 322 19807ft 300kts
12-Oct-20 09:40 34.119961 -119.264419 317 22397ft 362kts
12-Oct-20 09:41 34.207307 -119.345641 317 24513ft 434kts
12-Oct-20 09:42 34.306985 -119.435705 320 25782ft 454kts
12-Oct-20 09:43 34.410943 -119.526195 315 25943ft 463kts
12-Oct-20 09:44 34.503762 -119.634176 309 25935ft 464kts
12-Oct-20 09:45 34.594600 -119.746892 309 25944ft 469kts
12-Oct-20 09:46 34.686662 -119.861013 309 25969ft 473kts
12-Oct-20 09:47 34.779256 -119.975611 309 25970ft 477kts
12-Oct-20 09:48 34.872487 -120.090840 309 25968ft 474kts
12-Oct-20 09:49 34.963822 -120.203370 309 25966ft 463kts
12-Oct-20 09:50 35.051969 -120.315393 308 25966ft 453kts
12-Oct-20 09:51 35.140964 -120.423386 314 25965ft 453kts
12-Oct-20 09:52 35.238139 -120.526899 314 25962ft 469kts
12-Oct-20 09:53 35.336180 -120.633122 314 25961ft 473kts
12-Oct-20 09:54 35.433536 -120.739054 312 25914ft 450kts
12-Oct-20 09:55 35.523135 -120.844733 315 25910ft 453kts
12-Oct-20 09:56 35.624095 -120.940883 317 25915ft 465kts
12-Oct-20 09:57 35.721803 -121.033222 317 25910ft 422kts
12-Oct-20 09:58 35.814927 -121.120934 318 25913ft 420kts
12-Oct-20 09:59 35.907884 -121.202764 320 25905ft 389kts
12-Oct-20 10:00 35.994989 -121.282105 318 25583ft 394kts
12-Oct-20 10:01 36.081050 -121.365693 317 24254ft 396kts
12-Oct-20 10:02 36.172683 -121.440675 325 22737ft 387kts
12-Oct-20 10:03 36.262097 -121.506410 325 21188ft 362kts
12-Oct-20 10:04 36.347117 -121.569260 325 19976ft 348kts
12-Oct-20 10:05 36.432075 -121.634142 324 19971ft 377kts
12-Oct-20 10:06 36.517557 -121.702945 321 19963ft 350kts
12-Oct-20 10:07 36.595812 -121.770679 321 18511ft 325kts
12-Oct-20 10:08 36.667126 -121.832672 321 16989ft 304kts
12-Oct-20 10:09 36.739215 -121.886443 334 15425ft 301kts
12-Oct-20 10:10 36.819715 -121.910841 343 13946ft 280kts
12-Oct-20 10:11 36.895667 -121.933892 344 11911ft 272kts
12-Oct-20 10:12 36.968573 -121.958515 343 10066ft 277kts
12-Oct-20 10:14 37.041671 -121.985161 343 9749ft 266kts
12-Oct-20 10:15 37.110033 -122.010886 343 8678ft 233kts
12-Oct-20 10:16 37.175357 -122.036399 343 8003ft 244kts
12-Oct-20 10:17 37.238958 -122.062107 343 7296ft 232kts
12-Oct-20 10:18 37.295195 -122.084870 343 5968ft 202kts
12-Oct-20 10:19 37.347903 -122.105391 343 5944ft 199kts
12-Oct-20 10:20 37.411025 -122.127466 345 5939ft 239kts
12-Oct-20 10:21 37.468394 -122.146894 345 5402ft 226kts
12-Oct-20 10:22 37.529461 -122.170644 335 4462ft 229kts
12-Oct-20 10:23 37.563268 -122.231435 297 3295ft 210kts
12-Oct-20 10:24 37.587072 -122.293421 297 1385ft 160kts
12-Oct-20 10:25 37.606283 -122.339591 298 337ft 144kts
12-Oct-20 10:26 37.621289 -122.375473 297 14ft 33kts
12-Oct-20 10:27 37.622093 -122.375812 42 14ft 0kts
12-Oct-20 10:28 37.622292 -122.375588 41 14ft 7kts
12-Oct-20 10:29 37.624748 -122.376037 27 14ft 8kts
12-Oct-20 10:30 37.625233 -122.375733 26 14ft 0kts
12-Oct-20 10:30 37.625233 -122.375733 26 14ft 0kts

Navigation Log

Ident Type
Flight plan parsing failed, navigation log unavailable